Time;durP1;ratioP1;P1;durP2;ratioP2;P2;SDS_P1;SDS_P2;PMS_P1;PMS_P2;Temp;Humidity;BMP_temperature;BMP_pressure;BME280_temperature;BME280_humidity;BME280_pressure;Samples;Min_cycle;Max_cycle;Signal;HPM_P1;HPM_P2
2023/04/13 00:00:40;;;;;;;1.87;1.30;;;11.20;99.90;11.30;99096.00;;;;5007678;27;90011;-65
2023/04/13 00:03:07;;;;;;;3.33;1.53;;;11.30;99.90;11.30;99086.00;;;;5006181;27;116752;-66
2023/04/13 00:05:36;;;;;;;1.60;1.30;;;11.30;99.90;11.20;99090.00;;;;5009030;27;87716;-66
2023/04/13 00:08:02;;;;;;;1.33;1.17;;;11.30;99.90;11.20;99095.00;;;;5023350;27;87780;-66
2023/04/13 00:10:30;;;;;;;1.57;1.00;;;11.30;99.90;11.20;99096.00;;;;5009883;27;109037;-66
2023/04/13 00:12:57;;;;;;;1.07;0.97;;;11.20;99.90;11.20;99098.00;;;;5011818;27;87858;-65
2023/04/13 00:15:24;;;;;;;1.30;1.00;;;11.20;99.90;11.20;99093.00;;;;5008734;27;87936;-65
2023/04/13 00:17:50;;;;;;;1.07;0.97;;;11.20;99.90;11.20;99095.00;;;;5005134;27;87016;-66
2023/04/13 00:20:16;;;;;;;1.07;0.90;;;11.20;99.90;11.20;99093.00;;;;5006606;27;117024;-65
2023/04/13 00:22:44;;;;;;;1.53;0.80;;;11.20;99.90;11.20;99104.00;;;;5008018;27;87936;-65
2023/04/13 00:25:13;;;;;;;1.27;0.87;;;11.20;99.90;11.20;99108.00;;;;5004508;27;88736;-66
2023/04/13 00:27:39;;;;;;;0.93;0.87;;;11.20;99.90;11.20;99107.00;;;;5009238;27;88133;-66
2023/04/13 00:30:12;;;;;;;0.77;0.77;;;11.20;99.90;11.20;99097.00;;;;5006506;27;88000;-66
2023/04/13 00:32:41;;;;;;;1.17;0.63;;;11.20;99.90;11.20;99093.00;;;;5005450;27;110278;-65
2023/04/13 00:35:08;;;;;;;0.67;0.53;;;11.20;99.90;11.10;99084.00;;;;5006305;27;87831;-65
2023/04/13 00:37:34;;;;;;;1.00;0.90;;;11.20;99.90;11.10;99072.00;;;;5008715;27;87813;-65
2023/04/13 00:40:00;;;;;;;0.87;0.60;;;11.10;99.90;11.10;99079.00;;;;5005534;27;95622;-65
2023/04/13 00:42:26;;;;;;;0.70;0.63;;;11.10;99.90;11.00;99089.00;;;;5007472;27;88256;-65
2023/04/13 00:44:52;;;;;;;0.73;0.50;;;11.10;99.90;11.00;99090.00;;;;5006916;27;100228;-65
2023/04/13 00:47:28;;;;;;;0.37;0.27;;;11.00;99.90;11.00;99084.00;;;;5007821;27;87912;-65
2023/04/13 00:50:00;;;;;;;2.37;0.40;;;11.00;99.90;10.90;99097.00;;;;5020068;27;97852;-65
2023/04/13 00:52:27;;;;;;;0.70;0.50;;;11.00;99.90;10.90;99092.00;;;;5005180;27;89629;-65
2023/04/13 00:54:56;;;;;;;0.53;0.50;;;11.00;99.90;10.90;99102.00;;;;5021031;27;87975;-67
2023/04/13 00:57:24;;;;;;;0.40;0.40;;;10.90;99.90;10.90;99103.00;;;;5017807;27;88020;-65
2023/04/13 00:59:51;;;;;;;0.50;0.43;;;10.90;99.90;10.80;99101.00;;;;5004607;27;89176;-65
2023/04/13 01:02:21;;;;;;;0.70;0.40;;;10.90;99.90;10.80;99094.00;;;;5005496;27;88236;-64
2023/04/13 01:04:48;;;;;;;1.23;0.20;;;10.80;99.90;10.80;99109.00;;;;5005270;27;87870;-67
2023/04/13 01:07:54;;;;;;;0.87;0.60;;;10.80;99.90;10.70;99125.00;;;;5003806;27;109260;-65
2023/04/13 01:10:38;;;;;;;0.40;0.40;;;10.80;99.90;10.70;99128.00;;;;5007135;27;88091;-65
2023/04/13 01:13:20;;;;;;;0.60;0.33;;;10.80;99.90;10.60;99130.00;;;;5007150;27;88011;-65
2023/04/13 01:16:00;;;;;;;0.50;0.30;;;10.70;99.90;10.60;99130.00;;;;5009090;27;88704;-66
2023/04/13 01:18:27;;;;;;;0.30;0.30;;;10.70;99.90;10.60;99135.00;;;;4999035;27;87725;-65
2023/04/13 01:20:54;;;;;;;0.87;0.43;;;10.60;99.90;10.60;99140.00;;;;5007054;27;88159;-65
2023/04/13 01:23:54;;;;;;;0.63;0.47;;;10.60;99.90;10.50;99141.00;;;;5005272;27;117685;-66
2023/04/13 01:26:21;;;;;;;0.77;0.60;;;10.60;99.90;10.50;99139.00;;;;4987729;27;87899;-66
2023/04/13 01:28:48;;;;;;;0.30;0.30;;;10.50;99.90;10.50;99138.00;;;;5008290;27;87815;-66
2023/04/13 01:31:16;;;;;;;0.40;0.40;;;10.50;99.90;10.50;99133.00;;;;5019955;27;88821;-65
2023/04/13 01:33:42;;;;;;;0.97;0.57;;;10.50;99.90;10.40;99133.00;;;;4993754;27;88707;-66
2023/04/13 01:36:10;;;;;;;0.53;0.43;;;10.50;99.90;10.40;99137.00;;;;4992841;27;110719;-65
2023/04/13 01:38:36;;;;;;;1.00;0.90;;;10.50;99.90;10.40;99145.00;;;;5008539;27;88239;-65
2023/04/13 01:41:02;;;;;;;0.80;0.57;;;10.70;99.90;10.40;99144.00;;;;5008987;27;90026;-65
2023/04/13 01:43:29;;;;;;;1.07;0.70;;;10.40;99.90;10.30;99142.00;;;;5005948;27;89501;-65
2023/04/13 01:46:03;;;;;;;0.77;0.77;;;10.40;99.90;10.30;99138.00;;;;4994283;27;87841;-65
2023/04/13 01:48:49;;;;;;;0.67;0.30;;;10.40;99.90;10.30;99150.00;;;;5024685;27;88144;-65
2023/04/13 01:51:30;;;;;;;0.50;0.40;;;10.40;99.90;10.30;99147.00;;;;5009710;27;88032;-65
2023/04/13 01:54:01;;;;;;;0.47;0.40;;;10.30;99.90;10.20;99147.00;;;;5011169;27;88914;-65
2023/04/13 01:56:28;;;;;;;0.40;0.30;;;10.30;99.90;10.20;99140.00;;;;5009530;27;88036;-66
2023/04/13 01:58:58;;;;;;;1.13;0.73;;;10.30;99.90;10.20;99142.00;;;;5025251;27;107369;-65
2023/04/13 02:01:25;;;;;;;0.67;0.40;;;10.30;99.90;10.20;99140.00;;;;5022841;27;88018;-65
2023/04/13 02:03:52;;;;;;;0.40;0.23;;;10.20;99.90;10.10;99130.00;;;;5006891;27;89048;-64
2023/04/13 02:06:18;;;;;;;0.27;0.27;;;10.20;99.90;10.10;99128.00;;;;5003181;27;88710;-66
2023/04/13 02:08:44;;;;;;;0.67;0.60;;;10.20;99.90;10.10;99133.00;;;;5007319;27;87961;-65
2023/04/13 02:11:11;;;;;;;0.73;0.60;;;10.10;99.90;10.00;99141.00;;;;5009274;27;88776;-65
2023/04/13 02:13:37;;;;;;;0.30;0.30;;;10.20;99.90;10.00;99144.00;;;;5010713;27;88322;-65
2023/04/13 02:16:05;;;;;;;0.43;0.27;;;10.00;99.90;10.00;99136.00;;;;5010823;27;103607;-65
2023/04/13 02:18:32;;;;;;;0.53;0.47;;;10.00;99.90;9.90;99155.00;;;;5011848;27;87952;-65
2023/04/13 02:21:15;;;;;;;0.57;0.33;;;10.00;99.90;9.90;99152.00;;;;5008794;27;88946;-65
2023/04/13 02:23:40;;;;;;;1.00;0.63;;;10.00;99.90;9.90;99158.00;;;;5010810;27;87861;-66
2023/04/13 02:26:13;;;;;;;0.40;0.30;;;9.90;99.90;9.80;99170.00;;;;5009962;27;100919;-66
2023/04/13 02:28:39;;;;;;;0.50;0.40;;;9.90;99.90;9.80;99181.00;;;;5010848;27;87886;-65
2023/04/13 02:31:05;;;;;;;0.40;0.40;;;9.80;99.90;9.80;99192.00;;;;5004560;27;117528;-67
2023/04/13 02:33:34;;;;;;;0.20;0.20;;;9.80;99.90;9.70;99192.00;;;;5022757;27;89663;-65
2023/04/13 02:36:02;;;;;;;0.20;0.20;;;9.80;99.90;9.70;99194.00;;;;5010297;27;88235;-65
2023/04/13 02:38:29;;;;;;;0.30;0.20;;;9.70;99.90;9.60;99201.00;;;;5010935;27;87710;-66
2023/04/13 02:40:59;;;;;;;0.20;0.20;;;9.70;99.90;9.60;99214.00;;;;5011756;27;107643;-65
2023/04/13 02:43:25;;;;;;;0.20;0.10;;;9.70;99.90;9.60;99208.00;;;;5007123;27;88316;-65
2023/04/13 02:45:52;;;;;;;0.27;0.27;;;9.60;99.90;9.50;99215.00;;;;5012134;27;88511;-65
2023/04/13 02:48:19;;;;;;;0.07;0.07;;;9.60;99.90;9.50;99199.00;;;;5006748;27;108452;-65
2023/04/13 02:50:45;;;;;;;0.10;0.10;;;9.60;99.90;9.50;99193.00;;;;5007814;27;88932;-65
2023/04/13 02:53:11;;;;;;;0.20;0.20;;;9.50;99.90;9.40;99191.00;;;;5008990;27;107894;-66
2023/04/13 02:55:37;;;;;;;0.10;0.10;;;9.50;99.90;9.40;99194.00;;;;5010923;27;88705;-66
2023/04/13 02:58:05;;;;;;;0.10;0.10;;;9.50;99.90;9.40;99191.00;;;;5008896;27;87723;-65
2023/04/13 03:00:31;;;;;;;3.03;0.30;;;9.50;99.90;9.30;99199.00;;;;5009466;27;88518;-64
2023/04/13 03:02:57;;;;;;;0.20;0.10;;;9.40;99.90;9.30;99202.00;;;;5005994;27;87832;-65
2023/04/13 03:05:23;;;;;;;0.10;0.10;;;9.40;99.90;9.30;99200.00;;;;5006946;27;102547;-65
2023/04/13 03:07:49;;;;;;;1.20;0.13;;;9.40;99.90;9.20;99201.00;;;;5008697;27;87716;-67
2023/04/13 03:10:14;;;;;;;0.13;0.10;;;9.30;99.90;9.20;99211.00;;;;5006708;27;117010;-65
2023/04/13 03:12:40;;;;;;;0.10;0.10;;;9.30;99.90;9.20;99218.00;;;;5006254;27;88478;-66
2023/04/13 03:15:09;;;;;;;0.00;0.00;;;9.30;99.90;9.20;99215.00;;;;5009031;27;88077;-67
2023/04/13 03:17:39;;;;;;;0.40;0.20;;;9.20;99.90;9.20;99215.00;;;;5007345;27;87834;-66
2023/04/13 03:20:15;;;;;;;0.30;0.10;;;9.20;99.90;9.10;99222.00;;;;5004540;27;90458;-65
2023/04/13 03:22:44;;;;;;;0.20;0.20;;;9.20;99.90;9.10;99216.00;;;;5009573;27;88894;-65
2023/04/13 03:25:10;;;;;;;0.23;0.23;;;9.20;99.90;9.10;99225.00;;;;5009692;27;88165;-66
2023/04/13 03:27:36;;;;;;;0.20;0.10;;;9.10;99.90;9.00;99231.00;;;;5007355;27;91008;-66
2023/04/13 03:30:03;;;;;;;0.10;0.10;;;9.10;99.90;9.00;99221.00;;;;5008778;27;88551;-66
2023/04/13 03:32:28;;;;;;;0.67;0.40;;;9.10;99.90;9.00;99220.00;;;;4992295;27;88228;-66
2023/04/13 03:34:54;;;;;;;0.20;0.20;;;9.10;99.90;8.90;99211.00;;;;5020008;27;109647;-66
2023/04/13 03:37:20;;;;;;;0.20;0.20;;;9.00;99.90;8.90;99230.00;;;;5006637;27;109116;-66
2023/04/13 03:39:46;;;;;;;1.60;0.30;;;9.00;99.90;8.80;99234.00;;;;5008534;27;88467;-65
2023/04/13 03:42:11;;;;;;;0.10;0.10;;;9.00;99.90;8.80;99230.00;;;;5008959;27;96652;-66
2023/04/13 03:44:37;;;;;;;0.40;0.20;;;8.90;99.90;8.80;99237.00;;;;5006811;27;111113;-66
2023/04/13 03:47:03;;;;;;;0.40;0.20;;;8.80;99.90;8.70;99238.00;;;;5007972;27;87846;-66
2023/04/13 03:49:31;;;;;;;0.30;0.13;;;8.80;99.90;8.70;99247.00;;;;5007148;27;88001;-68
2023/04/13 03:51:57;;;;;;;0.30;0.30;;;8.80;99.90;8.70;99257.00;;;;5006748;27;87915;-66
2023/04/13 03:54:23;;;;;;;0.10;0.10;;;8.70;99.90;8.60;99253.00;;;;5006149;27;87928;-66
2023/04/13 03:56:50;;;;;;;0.20;0.20;;;9.50;99.90;8.60;99267.00;;;;5006924;27;87807;-66
2023/04/13 03:59:16;;;;;;;0.30;0.30;;;8.70;99.90;8.60;99256.00;;;;5010008;27;88751;-65
2023/04/13 04:01:41;;;;;;;2.27;0.10;;;8.70;99.90;8.60;99262.00;;;;5007010;27;118984;-66
2023/04/13 04:04:07;;;;;;;0.87;0.40;;;8.70;99.90;8.50;99270.00;;;;5006133;27;108762;-66
2023/04/13 04:06:33;;;;;;;3.63;0.17;;;8.60;99.90;8.50;99271.00;;;;5010082;27;87816;-67
2023/04/13 04:08:58;;;;;;;0.00;0.00;;;8.60;99.90;8.50;99267.00;;;;5006701;27;118935;-67
2023/04/13 04:11:24;;;;;;;0.10;0.10;;;8.60;99.90;8.50;99256.00;;;;5005769;27;116898;-67
2023/04/13 04:13:50;;;;;;;0.00;0.00;;;8.50;99.90;8.40;99262.00;;;;5007692;27;87890;-67
2023/04/13 04:16:16;;;;;;;0.17;0.17;;;8.50;99.90;8.40;99265.00;;;;5004910;27;107616;-67
2023/04/13 04:18:42;;;;;;;0.20;0.20;;;8.60;99.90;8.40;99271.00;;;;5004963;27;117160;-66
2023/04/13 04:21:08;;;;;;;0.37;0.37;;;8.50;99.90;8.30;99270.00;;;;5004844;27;88120;-66
2023/04/13 04:23:36;;;;;;;0.03;0.03;;;8.40;99.90;8.30;99278.00;;;;5008087;27;87883;-66
2023/04/13 04:26:03;;;;;;;0.20;0.20;;;8.40;99.90;8.30;99271.00;;;;5008973;27;87246;-66
2023/04/13 04:28:29;;;;;;;0.00;0.00;;;8.40;99.90;8.30;99264.00;;;;5020889;27;97645;-66
2023/04/13 04:31:00;;;;;;;0.67;0.23;;;8.40;99.90;8.20;99270.00;;;;5000581;27;87971;-66
2023/04/13 04:33:26;;;;;;;0.10;0.10;;;8.40;99.90;8.20;99270.00;;;;5003068;27;89289;-66
2023/04/13 04:35:52;;;;;;;0.20;0.20;;;8.30;99.90;8.30;99244.00;;;;5001242;27;109203;-66
2023/04/13 04:38:20;;;;;;;2.53;0.47;;;8.40;99.90;8.30;99236.00;;;;5001596;27;88124;-66
2023/04/13 04:40:47;;;;;;;2.00;0.30;;;8.40;99.90;8.30;99240.00;;;;5002341;27;88614;-66
2023/04/13 04:43:13;;;;;;;0.20;0.20;;;8.40;99.90;8.30;99228.00;;;;5001431;27;110636;-67
2023/04/13 04:45:42;;;;;;;0.20;0.20;;;8.40;99.90;8.30;99237.00;;;;5003991;27;87976;-67
2023/04/13 04:48:10;;;;;;;0.73;0.47;;;8.40;99.90;8.20;99234.00;;;;5001209;27;89118;-67
2023/04/13 04:50:43;;;;;;;0.30;0.30;;;8.40;99.90;8.20;99235.00;;;;5004432;27;88529;-67
2023/04/13 04:53:12;;;;;;;0.53;0.10;;;8.30;99.90;8.20;99243.00;;;;5003129;27;87653;-67
2023/04/13 04:55:38;;;;;;;0.40;0.27;;;8.30;99.90;8.20;99265.00;;;;5002876;27;88559;-66
2023/04/13 04:58:04;;;;;;;0.20;0.20;;;8.30;99.90;8.20;99267.00;;;;5002380;27;91025;-67
2023/04/13 05:00:30;;;;;;;0.20;0.20;;;8.70;99.90;8.20;99266.00;;;;5002654;27;89739;-67
2023/04/13 05:02:56;;;;;;;0.97;0.50;;;8.20;99.90;8.20;99281.00;;;;5003358;27;87943;-67
2023/04/13 05:05:23;;;;;;;0.33;0.33;;;8.20;99.90;8.10;99288.00;;;;5002196;27;88055;-67
2023/04/13 05:07:49;;;;;;;0.47;0.43;;;8.70;99.90;8.20;99288.00;;;;5003287;27;89098;-66
2023/04/13 05:10:15;;;;;;;0.20;0.20;;;8.20;99.90;8.10;99304.00;;;;5003531;27;104336;-66
2023/04/13 05:12:41;;;;;;;0.40;0.40;;;8.20;99.90;8.10;99300.00;;;;5006933;27;88263;-66
2023/04/13 05:15:07;;;;;;;1.37;0.83;;;8.20;99.90;8.10;99289.00;;;;5003800;27;108305;-66
2023/04/13 05:17:35;;;;;;;1.00;0.80;;;8.20;99.90;8.10;99291.00;;;;5006370;27;89019;-66
2023/04/13 05:20:05;;;;;;;1.00;0.47;;;8.20;99.90;8.10;99312.00;;;;5004812;27;88897;-65
2023/04/13 05:22:31;;;;;;;0.60;0.60;;;8.20;99.90;8.10;99308.00;;;;5007165;27;89030;-66
2023/04/13 05:24:57;;;;;;;1.57;0.30;;;8.20;99.90;8.10;99323.00;;;;5007471;27;87817;-66
2023/04/13 05:27:22;;;;;;;0.20;0.20;;;8.60;99.90;8.10;99326.00;;;;5005216;27;117208;-66
2023/04/13 05:29:48;;;;;;;0.40;0.20;;;8.20;99.90;8.20;99325.00;;;;5005493;27;116789;-67
2023/04/13 05:32:14;;;;;;;0.43;0.20;;;8.20;99.90;8.20;99343.00;;;;4990847;27;110099;-66
2023/04/13 05:34:40;;;;;;;1.47;0.80;;;8.20;99.90;8.20;99355.00;;;;5008980;27;89516;-66
2023/04/13 05:37:05;;;;;;;0.23;0.23;;;8.30;99.90;8.30;99351.00;;;;5007417;27;88194;-66
2023/04/13 05:39:31;;;;;;;0.70;0.40;;;8.30;99.90;8.30;99359.00;;;;5007308;27;118170;-65
2023/04/13 05:41:57;;;;;;;0.50;0.40;;;8.30;99.90;8.40;99364.00;;;;5007901;27;100574;-67
2023/04/13 05:44:22;;;;;;;0.10;0.10;;;8.40;99.90;8.40;99359.00;;;;5008241;27;88029;-66
2023/04/13 05:46:51;;;;;;;0.63;0.60;;;8.50;99.90;8.50;99358.00;;;;5003120;27;118068;-67
2023/04/13 05:49:17;;;;;;;0.60;0.47;;;8.50;99.90;8.50;99347.00;;;;5007543;27;89471;-65
2023/04/13 05:51:50;;;;;;;0.70;0.57;;;8.60;99.90;8.60;99364.00;;;;5005329;27;87901;-66
2023/04/13 05:54:16;;;;;;;0.27;0.20;;;8.60;99.90;8.60;99371.00;;;;5006224;27;87864;-67
2023/04/13 05:56:41;;;;;;;1.77;0.70;;;8.60;99.90;8.70;99366.00;;;;5007410;27;88112;-66
2023/04/13 05:59:08;;;;;;;1.67;1.07;;;8.70;99.90;8.70;99372.00;;;;5004362;27;117444;-67
2023/04/13 06:01:34;;;;;;;1.60;0.80;;;8.70;99.90;8.70;99375.00;;;;5003085;27;88140;-66
2023/04/13 06:04:01;;;;;;;0.83;0.43;;;8.80;99.90;8.80;99391.00;;;;5005215;27;87037;-67
2023/04/13 06:06:26;;;;;;;0.50;0.50;;;8.80;99.90;8.80;99385.00;;;;5006186;27;88540;-66
2023/04/13 06:08:52;;;;;;;0.40;0.40;;;8.90;99.90;8.80;99401.00;;;;5018344;27;98371;-66
2023/04/13 06:11:19;;;;;;;1.30;0.23;;;8.80;99.90;8.80;99394.00;;;;4997755;27;89017;-67
2023/04/13 06:13:45;;;;;;;0.30;0.30;;;8.90;99.90;8.80;99410.00;;;;5003513;27;87849;-67
2023/04/13 06:16:11;;;;;;;0.63;0.30;;;8.90;99.90;8.90;99428.00;;;;5000508;27;116266;-66
2023/04/13 06:18:36;;;;;;;0.50;0.50;;;8.90;99.90;8.90;99433.00;;;;5005522;27;113465;-65
2023/04/13 06:21:02;;;;;;;0.73;0.73;;;8.90;99.90;8.90;99415.00;;;;5004605;27;88802;-67
2023/04/13 06:23:28;;;;;;;0.50;0.50;;;9.00;99.90;9.00;99426.00;;;;5008474;27;88056;-67
2023/04/13 06:25:54;;;;;;;0.83;0.50;;;9.00;99.90;9.00;99416.00;;;;5005880;27;117882;-66
2023/04/13 06:28:20;;;;;;;0.30;0.30;;;9.00;99.90;9.00;99404.00;;;;5007987;27;100603;-66
2023/04/13 06:30:46;;;;;;;0.73;0.57;;;9.00;99.90;9.00;99407.00;;;;5007367;27;88082;-67
2023/04/13 06:33:13;;;;;;;0.83;0.50;;;9.10;99.90;9.10;99414.00;;;;5006876;27;89308;-66
2023/04/13 06:35:39;;;;;;;0.17;0.17;;;9.10;99.90;9.10;99408.00;;;;5004078;27;89744;-66
2023/04/13 06:38:08;;;;;;;0.27;0.10;;;9.10;99.90;9.10;99413.00;;;;5004322;27;89908;-65
2023/04/13 06:40:34;;;;;;;0.60;0.30;;;9.10;99.90;9.10;99421.00;;;;5007308;27;87909;-66
2023/04/13 06:43:00;;;;;;;0.20;0.20;;;9.20;99.90;9.20;99408.00;;;;5006939;27;107669;-66
2023/04/13 06:45:25;;;;;;;0.30;0.30;;;9.20;99.90;9.20;99412.00;;;;5005013;27;117668;-67
2023/04/13 06:47:53;;;;;;;0.40;0.27;;;9.20;99.90;9.20;99401.00;;;;5006076;27;116769;-66
2023/04/13 06:50:18;;;;;;;0.23;0.23;;;9.30;99.90;9.30;99414.00;;;;5005332;27;87777;-66
2023/04/13 06:52:46;;;;;;;1.43;0.67;;;9.30;99.90;9.30;99430.00;;;;5003135;27;110038;-67
2023/04/13 06:55:13;;;;;;;0.30;0.30;;;9.40;99.90;9.30;99428.00;;;;5018711;27;92986;-66
2023/04/13 06:57:40;;;;;;;0.50;0.40;;;9.30;99.90;9.30;99423.00;;;;5006603;27;89223;-66
2023/04/13 07:00:07;;;;;;;0.93;0.37;;;9.40;99.90;9.30;99426.00;;;;5005365;27;88693;-66
2023/04/13 07:02:33;;;;;;;0.40;0.40;;;9.40;99.90;9.40;99420.00;;;;5020614;27;87960;-67
2023/04/13 07:04:59;;;;;;;0.27;0.20;;;9.40;99.90;9.40;99413.00;;;;4988042;27;117198;-66
2023/04/13 07:07:24;;;;;;;0.40;0.40;;;9.40;99.90;9.40;99420.00;;;;5002229;27;117152;-65
2023/04/13 07:09:51;;;;;;;0.63;0.30;;;9.50;99.90;9.40;99414.00;;;;5003628;27;109957;-67
2023/04/13 07:12:17;;;;;;;0.40;0.30;;;9.50;99.90;9.50;99411.00;;;;5005220;27;87825;-65
2023/04/13 07:14:45;;;;;;;0.70;0.53;;;9.50;99.90;9.50;99409.00;;;;5003279;27;90268;-65
2023/04/13 07:17:11;;;;;;;0.20;0.20;;;9.50;99.90;9.50;99415.00;;;;5003369;27;88921;-66
2023/04/13 07:19:38;;;;;;;1.50;0.77;;;9.60;99.90;9.60;99427.00;;;;5002798;27;95957;-68
2023/04/13 07:22:03;;;;;;;0.67;0.30;;;9.60;99.90;9.60;99429.00;;;;5021966;27;100707;-67
2023/04/13 07:24:29;;;;;;;1.10;0.40;;;9.60;99.90;9.60;99429.00;;;;5005416;27;107859;-68
2023/04/13 07:26:56;;;;;;;0.43;0.40;;;9.60;99.90;9.70;99424.00;;;;5002292;27;118044;-65
2023/04/13 07:29:23;;;;;;;0.53;0.20;;;9.70;99.90;9.70;99427.00;;;;5003652;27;88578;-66
2023/04/13 07:31:49;;;;;;;0.60;0.27;;;9.70;99.90;9.80;99425.00;;;;5003820;27;87760;-66
2023/04/13 07:34:15;;;;;;;0.60;0.60;;;9.80;99.90;9.90;99441.00;;;;5002854;27;89600;-66
2023/04/13 07:36:42;;;;;;;0.30;0.30;;;9.90;99.90;9.90;99440.00;;;;5004297;27;88497;-66
2023/04/13 07:39:08;;;;;;;0.70;0.40;;;10.00;99.90;10.00;99438.00;;;;5002498;27;88090;-66
2023/04/13 07:41:35;;;;;;;0.70;0.63;;;10.00;99.90;10.10;99434.00;;;;5006575;27;87004;-65
2023/04/13 07:44:04;;;;;;;0.33;0.33;;;10.10;99.90;10.10;99449.00;;;;5005208;27;89264;-66
2023/04/13 07:46:31;;;;;;;0.43;0.30;;;10.20;99.90;10.20;99446.00;;;;5006614;27;88185;-65
2023/04/13 07:48:57;;;;;;;1.03;0.70;;;10.20;99.90;10.20;99464.00;;;;5003746;27;94400;-65
2023/04/13 07:51:23;;;;;;;1.27;0.73;;;10.30;99.90;10.30;99467.00;;;;5004429;27;87914;-67
2023/04/13 07:53:51;;;;;;;0.40;0.40;;;10.30;99.90;10.30;99464.00;;;;5001859;27;118314;-65
2023/04/13 07:56:17;;;;;;;0.70;0.50;;;10.30;99.90;10.30;99462.00;;;;5004581;27;88752;-67
2023/04/13 07:58:44;;;;;;;0.40;0.40;;;10.50;99.90;10.40;99469.00;;;;5005652;27;88072;-66
2023/04/13 08:01:10;;;;;;;0.20;0.20;;;10.40;99.90;10.40;99473.00;;;;5007292;27;87784;-66
2023/04/13 08:03:36;;;;;;;0.77;0.30;;;10.40;99.90;10.40;99467.00;;;;5004818;27;88101;-67
2023/04/13 08:06:06;;;;;;;0.63;0.40;;;10.40;99.90;10.40;99477.00;;;;5003026;27;88760;-67
2023/04/13 08:08:32;;;;;;;2.20;0.50;;;10.40;99.90;10.40;99480.00;;;;5004701;27;87760;-67
2023/04/13 08:10:58;;;;;;;0.30;0.30;;;10.40;99.90;10.50;99485.00;;;;5005629;27;108285;-67
2023/04/13 08:13:27;;;;;;;0.57;0.50;;;10.50;99.90;10.50;99474.00;;;;5005838;27;88885;-67
2023/04/13 08:15:55;;;;;;;2.10;0.50;;;10.50;99.90;10.50;99486.00;;;;5005945;27;89052;-67
2023/04/13 08:18:28;;;;;;;0.70;0.40;;;10.50;99.90;10.50;99490.00;;;;5007043;27;88360;-65
2023/04/13 08:20:54;;;;;;;1.70;0.60;;;10.50;99.90;10.60;99499.00;;;;5006012;27;87867;-65
2023/04/13 08:23:21;;;;;;;0.40;0.40;;;10.60;99.90;10.70;99502.00;;;;5005935;27;117815;-66
2023/04/13 08:25:46;;;;;;;0.87;0.43;;;10.60;99.90;10.70;99501.00;;;;5006385;27;88222;-66
2023/04/13 08:28:12;;;;;;;0.77;0.57;;;10.70;99.90;10.80;99507.00;;;;5002434;27;109242;-66
2023/04/13 08:30:38;;;;;;;3.17;0.60;;;10.80;99.90;10.90;99506.00;;;;5003304;27;87103;-66
2023/04/13 08:33:04;;;;;;;2.97;0.40;;;10.90;99.90;11.10;99511.00;;;;4998225;27;117259;-66
2023/04/13 08:35:30;;;;;;;0.30;0.30;;;11.00;99.90;11.20;99510.00;;;;5000789;27;117053;-64
2023/04/13 08:37:55;;;;;;;0.60;0.30;;;11.20;99.90;11.30;99508.00;;;;5003800;27;89271;-67
2023/04/13 08:40:21;;;;;;;0.40;0.37;;;11.20;99.90;11.40;99507.00;;;;5004576;27;108388;-66
2023/04/13 08:42:47;;;;;;;0.33;0.30;;;11.30;99.90;11.40;99500.00;;;;5008658;27;88837;-67
2023/04/13 08:45:14;;;;;;;0.50;0.40;;;11.40;98.60;11.40;99514.00;;;;5003740;27;108487;-66
2023/04/13 08:47:41;;;;;;;0.57;0.33;;;11.40;98.90;11.40;99518.00;;;;5005326;27;87785;-66
2023/04/13 08:50:08;;;;;;;0.20;0.20;;;11.40;97.90;11.30;99518.00;;;;5006780;27;88244;-66
2023/04/13 08:52:35;;;;;;;2.20;1.47;;;11.40;97.60;11.30;99525.00;;;;5006835;27;88413;-66
2023/04/13 08:55:03;;;;;;;0.37;0.33;;;11.40;97.60;11.20;99517.00;;;;5006362;27;88050;-67
2023/04/13 08:57:30;;;;;;;0.70;0.70;;;11.30;97.40;11.20;99518.00;;;;5005352;27;89310;-67
2023/04/13 08:59:57;;;;;;;1.50;0.53;;;11.20;97.40;11.20;99520.00;;;;5006058;27;99175;-66
2023/04/13 09:02:33;;;;;;;0.33;0.30;;;11.20;97.10;11.20;99521.00;;;;5004655;27;90834;-66
2023/04/13 09:05:04;;;;;;;2.27;0.63;;;11.20;97.60;11.20;99522.00;;;;4985183;27;88017;-66
2023/04/13 09:07:33;;;;;;;0.10;0.10;;;11.20;98.20;11.30;99522.00;;;;5004505;27;88068;-66
2023/04/13 09:09:59;;;;;;;0.30;0.30;;;11.30;97.70;11.30;99516.00;;;;5018454;27;88356;-66
2023/04/13 09:12:27;;;;;;;0.53;0.40;;;11.60;97.90;11.40;99517.00;;;;5004484;27;88847;-66
2023/04/13 09:14:53;;;;;;;2.00;0.60;;;11.40;98.00;11.40;99525.00;;;;4996421;27;88175;-66
2023/04/13 09:17:33;;;;;;;1.03;0.53;;;11.40;97.60;11.50;99514.00;;;;5002597;27;87956;-66
2023/04/13 09:20:21;;;;;;;1.33;0.57;;;11.50;97.50;11.60;99523.00;;;;5003251;27;87191;-67
2023/04/13 09:22:50;;;;;;;0.50;0.23;;;11.60;97.60;11.70;99528.00;;;;5019383;27;89569;-67
2023/04/13 09:25:28;;;;;;;4.57;0.70;;;11.60;97.10;11.70;99536.00;;;;5003184;27;88701;-66
2023/04/13 09:27:55;;;;;;;0.50;0.50;;;11.90;96.50;11.80;99518.00;;;;5003456;27;88959;-66
2023/04/13 09:30:24;;;;;;;1.47;0.43;;;11.80;95.40;11.90;99518.00;;;;5004910;27;89386;-67
2023/04/13 09:33:06;;;;;;;0.40;0.40;;;11.80;94.80;11.90;99535.00;;;;5003763;27;88420;-68
2023/04/13 09:35:33;;;;;;;0.60;0.60;;;11.90;94.60;12.00;99532.00;;;;5005308;27;89354;-67
2023/04/13 09:37:59;;;;;;;0.30;0.30;;;12.00;94.30;12.00;99539.00;;;;5004377;27;87755;-66
2023/04/13 09:40:28;;;;;;;0.40;0.40;;;12.00;93.70;12.10;99537.00;;;;5003827;27;88274;-67
2023/04/13 09:43:02;;;;;;;0.13;0.13;;;12.10;93.60;12.10;99536.00;;;;5004758;27;87924;-66
2023/04/13 09:45:39;;;;;;;1.70;0.47;;;12.00;93.10;12.10;99537.00;;;;5002160;27;87184;-66
2023/04/13 09:48:17;;;;;;;3.03;0.50;;;12.20;93.10;12.10;99543.00;;;;4998464;27;87893;-67
2023/04/13 09:50:43;;;;;;;0.23;0.23;;;12.00;90.60;12.00;99545.00;;;;5003344;27;87898;-67
2023/04/13 09:53:11;;;;;;;0.57;0.40;;;12.00;90.50;12.00;99546.00;;;;5002273;27;118361;-67
2023/04/13 09:56:08;;;;;;;0.37;0.37;;;12.00;90.60;11.90;99546.00;;;;4999216;27;89303;-66
2023/04/13 09:58:53;;;;;;;2.67;0.83;;;11.90;90.10;12.00;99562.00;;;;4985549;27;88288;-66
2023/04/13 10:01:19;;;;;;;0.37;0.37;;;12.00;90.40;12.00;99557.00;;;;5003429;27;87999;-67
2023/04/13 10:03:45;;;;;;;0.50;0.50;;;12.00;90.90;12.10;99562.00;;;;5016056;27;88566;-67
2023/04/13 10:06:11;;;;;;;0.13;0.13;;;12.10;91.20;12.20;99556.00;;;;5000699;27;111231;-67
2023/04/13 10:08:39;;;;;;;1.50;0.63;;;12.10;90.90;12.10;99556.00;;;;5001976;27;87794;-67
2023/04/13 10:11:13;;;;;;;0.30;0.30;;;12.10;88.30;12.10;99570.00;;;;5004268;27;87182;-66
2023/04/13 10:13:52;;;;;;;2.27;0.77;;;12.00;89.20;12.00;99573.00;;;;5006711;27;88107;-67
2023/04/13 10:16:47;;;;;;;2.13;0.40;;;12.00;90.00;12.00;99565.00;;;;4989110;27;109116;-68
2023/04/13 10:19:20;;;;;;;1.80;0.77;;;12.00;90.20;12.00;99573.00;;;;4992730;27;88849;-69
2023/04/13 10:21:49;;;;;;;7.23;0.70;;;12.00;89.60;11.90;99564.00;;;;5022944;27;87795;-68
2023/04/13 10:24:15;;;;;;;0.33;0.30;;;11.90;89.20;11.90;99571.00;;;;4992355;27;89199;-67
2023/04/13 10:26:43;;;;;;;0.47;0.30;;;12.00;89.10;11.90;99570.00;;;;5010621;27;116909;-66
2023/04/13 10:29:12;;;;;;;1.87;0.80;;;11.90;88.00;11.90;99566.00;;;;5005609;27;88031;-67
2023/04/13 10:31:47;;;;;;;1.00;0.60;;;11.90;88.30;11.90;99564.00;;;;5009706;27;88067;-65
2023/04/13 10:34:27;;;;;;;0.70;0.43;;;11.90;89.10;11.90;99573.00;;;;5004027;27;89273;-65
2023/04/13 10:37:02;;;;;;;0.40;0.40;;;11.90;89.60;12.00;99567.00;;;;5007140;27;90144;-65
2023/04/13 10:39:33;;;;;;;0.40;0.40;;;11.90;90.00;12.10;99569.00;;;;4997941;27;88053;-66
2023/04/13 10:42:05;;;;;;;3.30;0.47;;;12.20;90.20;12.20;99552.00;;;;5008190;27;87917;-67
2023/04/13 10:44:52;;;;;;;1.50;0.53;;;12.10;90.20;12.20;99563.00;;;;5005448;27;88998;-67
2023/04/13 10:47:21;;;;;;;0.60;0.47;;;12.20;90.10;12.30;99562.00;;;;4993415;27;88996;-66
2023/04/13 10:49:50;;;;;;;0.20;0.20;;;12.30;88.60;12.40;99571.00;;;;5007178;27;93127;-67
2023/04/13 10:52:16;;;;;;;0.20;0.20;;;12.40;88.40;12.60;99568.00;;;;5007854;27;88551;-66
2023/04/13 10:54:43;;;;;;;0.30;0.30;;;12.50;88.10;12.60;99574.00;;;;4998767;27;90609;-65
2023/04/13 10:57:11;;;;;;;2.57;1.03;;;12.60;85.60;12.70;99579.00;;;;5004580;27;89042;-66
2023/04/13 10:59:50;;;;;;;0.20;0.20;;;13.00;85.00;12.70;99588.00;;;;5009493;27;88865;-66
2023/04/13 11:02:30;;;;;;;1.13;0.60;;;12.70;84.90;12.80;99577.00;;;;5021212;27;87040;-66
2023/04/13 11:04:58;;;;;;;1.30;0.50;;;12.70;84.50;12.90;99583.00;;;;4987367;27;89267;-66